sensor_id;sensor_type;location;lat;lon;timestamp;P1;durP1;ratioP1;P2;durP2;ratioP2
6999;SDS011;3540;53.242;10.408;2023-02-01T00:01:22;23.87;;;4.67;;
6999;SDS011;3540;53.242;10.408;2023-02-01T00:03:47;28.50;;;4.83;;
6999;SDS011;3540;53.242;10.408;2023-02-01T00:06:13;25.40;;;5.07;;
6999;SDS011;3540;53.242;10.408;2023-02-01T00:08:39;26.20;;;4.77;;
6999;SDS011;3540;53.242;10.408;2023-02-01T00:11:07;24.40;;;4.13;;
6999;SDS011;3540;53.242;10.408;2023-02-01T00:13:35;22.73;;;4.10;;
6999;SDS011;3540;53.242;10.408;2023-02-01T00:16:06;22.17;;;3.90;;
6999;SDS011;3540;53.242;10.408;2023-02-01T00:18:37;29.13;;;5.10;;
6999;SDS011;3540;53.242;10.408;2023-02-01T00:21:03;27.13;;;5.03;;
6999;SDS011;3540;53.242;10.408;2023-02-01T00:23:31;25.70;;;5.00;;
6999;SDS011;3540;53.242;10.408;2023-02-01T00:26:02;25.67;;;3.90;;
6999;SDS011;3540;53.242;10.408;2023-02-01T00:28:29;24.50;;;4.87;;
6999;SDS011;3540;53.242;10.408;2023-02-01T00:30:56;24.37;;;5.33;;
6999;SDS011;3540;53.242;10.408;2023-02-01T00:33:23;28.83;;;4.37;;
6999;SDS011;3540;53.242;10.408;2023-02-01T00:35:48;31.90;;;5.53;;
6999;SDS011;3540;53.242;10.408;2023-02-01T00:38:14;29.37;;;4.67;;
6999;SDS011;3540;53.242;10.408;2023-02-01T00:40:39;33.37;;;5.97;;
6999;SDS011;3540;53.242;10.408;2023-02-01T00:43:05;21.93;;;4.30;;
6999;SDS011;3540;53.242;10.408;2023-02-01T00:45:31;23.40;;;4.47;;
6999;SDS011;3540;53.242;10.408;2023-02-01T00:47:56;27.97;;;5.33;;
6999;SDS011;3540;53.242;10.408;2023-02-01T00:50:22;34.93;;;5.17;;
6999;SDS011;3540;53.242;10.408;2023-02-01T00:52:47;22.87;;;4.37;;
6999;SDS011;3540;53.242;10.408;2023-02-01T00:55:13;28.13;;;4.33;;
6999;SDS011;3540;53.242;10.408;2023-02-01T00:57:38;24.27;;;5.00;;
6999;SDS011;3540;53.242;10.408;2023-02-01T01:00:04;32.10;;;5.40;;
6999;SDS011;3540;53.242;10.408;2023-02-01T01:02:30;28.27;;;5.23;;
6999;SDS011;3540;53.242;10.408;2023-02-01T01:04:56;23.53;;;4.87;;
6999;SDS011;3540;53.242;10.408;2023-02-01T01:07:21;26.77;;;5.10;;
6999;SDS011;3540;53.242;10.408;2023-02-01T01:09:47;22.77;;;4.70;;
6999;SDS011;3540;53.242;10.408;2023-02-01T01:12:13;29.77;;;4.93;;
6999;SDS011;3540;53.242;10.408;2023-02-01T01:14:38;29.43;;;5.33;;
6999;SDS011;3540;53.242;10.408;2023-02-01T01:17:04;27.27;;;5.30;;
6999;SDS011;3540;53.242;10.408;2023-02-01T01:19:29;29.83;;;5.33;;
6999;SDS011;3540;53.242;10.408;2023-02-01T01:21:55;32.10;;;6.20;;
6999;SDS011;3540;53.242;10.408;2023-02-01T01:24:21;30.93;;;5.63;;
6999;SDS011;3540;53.242;10.408;2023-02-01T01:26:46;27.17;;;5.10;;
6999;SDS011;3540;53.242;10.408;2023-02-01T01:29:12;33.70;;;6.40;;
6999;SDS011;3540;53.242;10.408;2023-02-01T01:31:37;27.43;;;5.10;;
6999;SDS011;3540;53.242;10.408;2023-02-01T01:34:03;25.83;;;4.90;;
6999;SDS011;3540;53.242;10.408;2023-02-01T01:36:29;27.10;;;5.73;;
6999;SDS011;3540;53.242;10.408;2023-02-01T01:38:54;28.67;;;5.23;;
6999;SDS011;3540;53.242;10.408;2023-02-01T01:41:22;32.87;;;5.73;;
6999;SDS011;3540;53.242;10.408;2023-02-01T01:43:51;35.20;;;6.40;;
6999;SDS011;3540;53.242;10.408;2023-02-01T01:46:29;26.70;;;5.30;;
6999;SDS011;3540;53.242;10.408;2023-02-01T01:49:05;31.80;;;5.10;;
6999;SDS011;3540;53.242;10.408;2023-02-01T01:51:38;26.43;;;5.07;;
6999;SDS011;3540;53.242;10.408;2023-02-01T01:54:16;34.33;;;5.63;;
6999;SDS011;3540;53.242;10.408;2023-02-01T01:56:48;30.43;;;5.83;;
6999;SDS011;3540;53.242;10.408;2023-02-01T01:59:17;34.57;;;5.80;;
6999;SDS011;3540;53.242;10.408;2023-02-01T02:01:43;31.80;;;5.83;;
6999;SDS011;3540;53.242;10.408;2023-02-01T02:04:09;34.57;;;5.30;;
6999;SDS011;3540;53.242;10.408;2023-02-01T02:06:49;29.33;;;5.87;;
6999;SDS011;3540;53.242;10.408;2023-02-01T02:09:16;22.20;;;4.63;;
6999;SDS011;3540;53.242;10.408;2023-02-01T02:11:42;30.07;;;5.70;;
6999;SDS011;3540;53.242;10.408;2023-02-01T02:14:09;29.10;;;5.00;;
6999;SDS011;3540;53.242;10.408;2023-02-01T02:16:54;35.30;;;5.43;;
6999;SDS011;3540;53.242;10.408;2023-02-01T02:33:38;33.13;;;6.00;;
6999;SDS011;3540;53.242;10.408;2023-02-01T02:44:49;26.97;;;5.03;;
6999;SDS011;3540;53.242;10.408;2023-02-01T02:50:19;39.53;;;6.40;;
6999;SDS011;3540;53.242;10.408;2023-02-01T02:53:15;26.57;;;5.37;;
6999;SDS011;3540;53.242;10.408;2023-02-01T02:56:05;32.37;;;5.30;;
6999;SDS011;3540;53.242;10.408;2023-02-01T02:58:51;33.07;;;5.77;;
6999;SDS011;3540;53.242;10.408;2023-02-01T03:01:37;27.57;;;5.70;;
6999;SDS011;3540;53.242;10.408;2023-02-01T03:04:23;31.50;;;6.17;;
6999;SDS011;3540;53.242;10.408;2023-02-01T03:06:51;36.07;;;4.70;;
6999;SDS011;3540;53.242;10.408;2023-02-01T03:09:23;30.70;;;5.97;;
6999;SDS011;3540;53.242;10.408;2023-02-01T03:11:58;34.63;;;5.87;;
6999;SDS011;3540;53.242;10.408;2023-02-01T03:14:47;25.67;;;4.87;;
6999;SDS011;3540;53.242;10.408;2023-02-01T03:17:19;24.73;;;5.07;;
6999;SDS011;3540;53.242;10.408;2023-02-01T03:19:51;33.80;;;5.60;;
6999;SDS011;3540;53.242;10.408;2023-02-01T03:22:22;23.93;;;4.47;;
6999;SDS011;3540;53.242;10.408;2023-02-01T03:24:53;36.07;;;6.53;;
6999;SDS011;3540;53.242;10.408;2023-02-01T03:27:24;29.17;;;4.87;;
6999;SDS011;3540;53.242;10.408;2023-02-01T03:29:56;33.40;;;5.20;;
6999;SDS011;3540;53.242;10.408;2023-02-01T03:32:31;32.17;;;5.80;;
6999;SDS011;3540;53.242;10.408;2023-02-01T03:35:18;33.47;;;5.80;;
6999;SDS011;3540;53.242;10.408;2023-02-01T03:37:52;22.00;;;4.60;;
6999;SDS011;3540;53.242;10.408;2023-02-01T03:40:24;19.60;;;3.90;;
6999;SDS011;3540;53.242;10.408;2023-02-01T03:42:51;21.50;;;4.03;;
6999;SDS011;3540;53.242;10.408;2023-02-01T03:45:30;22.87;;;3.77;;
6999;SDS011;3540;53.242;10.408;2023-02-01T03:48:00;20.93;;;4.37;;
6999;SDS011;3540;53.242;10.408;2023-02-01T03:50:28;24.23;;;5.03;;
6999;SDS011;3540;53.242;10.408;2023-02-01T03:52:59;23.57;;;4.70;;
6999;SDS011;3540;53.242;10.408;2023-02-01T03:55:30;28.77;;;5.33;;
6999;SDS011;3540;53.242;10.408;2023-02-01T03:57:57;26.17;;;4.30;;
6999;SDS011;3540;53.242;10.408;2023-02-01T04:00:28;23.67;;;4.33;;
6999;SDS011;3540;53.242;10.408;2023-02-01T04:02:54;14.53;;;2.80;;
6999;SDS011;3540;53.242;10.408;2023-02-01T04:05:20;11.07;;;2.33;;
6999;SDS011;3540;53.242;10.408;2023-02-01T04:07:46;5.77;;;1.90;;
6999;SDS011;3540;53.242;10.408;2023-02-01T04:10:12;9.90;;;2.20;;
6999;SDS011;3540;53.242;10.408;2023-02-01T04:12:38;7.90;;;1.87;;
6999;SDS011;3540;53.242;10.408;2023-02-01T04:15:04;6.03;;;1.70;;
6999;SDS011;3540;53.242;10.408;2023-02-01T04:17:30;7.50;;;2.20;;
6999;SDS011;3540;53.242;10.408;2023-02-01T04:19:56;7.77;;;1.60;;
6999;SDS011;3540;53.242;10.408;2023-02-01T04:22:22;8.03;;;1.57;;
6999;SDS011;3540;53.242;10.408;2023-02-01T04:24:47;9.07;;;2.00;;
6999;SDS011;3540;53.242;10.408;2023-02-01T04:27:13;4.73;;;1.80;;
6999;SDS011;3540;53.242;10.408;2023-02-01T04:29:38;5.40;;;1.43;;
6999;SDS011;3540;53.242;10.408;2023-02-01T04:32:04;8.33;;;1.80;;
6999;SDS011;3540;53.242;10.408;2023-02-01T04:34:30;6.80;;;1.20;;
6999;SDS011;3540;53.242;10.408;2023-02-01T04:36:56;5.47;;;1.43;;
6999;SDS011;3540;53.242;10.408;2023-02-01T04:39:21;3.50;;;1.33;;
6999;SDS011;3540;53.242;10.408;2023-02-01T04:41:47;3.77;;;1.40;;
6999;SDS011;3540;53.242;10.408;2023-02-01T04:44:14;3.73;;;1.43;;
6999;SDS011;3540;53.242;10.408;2023-02-01T04:46:41;5.40;;;1.53;;
6999;SDS011;3540;53.242;10.408;2023-02-01T04:49:08;6.67;;;1.90;;
6999;SDS011;3540;53.242;10.408;2023-02-01T04:51:35;7.63;;;2.00;;
6999;SDS011;3540;53.242;10.408;2023-02-01T04:54:00;14.33;;;2.30;;
6999;SDS011;3540;53.242;10.408;2023-02-01T04:56:26;12.20;;;2.60;;
6999;SDS011;3540;53.242;10.408;2023-02-01T04:58:52;10.47;;;2.10;;
6999;SDS011;3540;53.242;10.408;2023-02-01T05:01:18;12.43;;;2.23;;
6999;SDS011;3540;53.242;10.408;2023-02-01T05:03:44;8.63;;;2.40;;
6999;SDS011;3540;53.242;10.408;2023-02-01T05:06:09;8.33;;;1.80;;
6999;SDS011;3540;53.242;10.408;2023-02-01T05:08:35;9.30;;;1.80;;
6999;SDS011;3540;53.242;10.408;2023-02-01T05:11:01;7.43;;;1.90;;
6999;SDS011;3540;53.242;10.408;2023-02-01T05:13:29;7.80;;;1.97;;
6999;SDS011;3540;53.242;10.408;2023-02-01T05:16:13;7.07;;;2.10;;
6999;SDS011;3540;53.242;10.408;2023-02-01T05:18:39;5.30;;;1.70;;
6999;SDS011;3540;53.242;10.408;2023-02-01T05:21:05;6.70;;;1.80;;
6999;SDS011;3540;53.242;10.408;2023-02-01T05:23:30;6.40;;;1.90;;
6999;SDS011;3540;53.242;10.408;2023-02-01T05:25:59;5.93;;;1.67;;
6999;SDS011;3540;53.242;10.408;2023-02-01T05:28:26;6.87;;;2.00;;
6999;SDS011;3540;53.242;10.408;2023-02-01T05:30:52;3.93;;;1.60;;
6999;SDS011;3540;53.242;10.408;2023-02-01T05:33:18;7.97;;;2.10;;
6999;SDS011;3540;53.242;10.408;2023-02-01T05:35:43;5.20;;;1.80;;
6999;SDS011;3540;53.242;10.408;2023-02-01T05:38:09;5.00;;;1.70;;
6999;SDS011;3540;53.242;10.408;2023-02-01T05:40:34;7.97;;;1.63;;
6999;SDS011;3540;53.242;10.408;2023-02-01T05:43:00;5.00;;;1.60;;
6999;SDS011;3540;53.242;10.408;2023-02-01T05:45:25;5.50;;;1.80;;
6999;SDS011;3540;53.242;10.408;2023-02-01T05:47:51;5.83;;;2.00;;
6999;SDS011;3540;53.242;10.408;2023-02-01T05:50:17;5.90;;;2.00;;
6999;SDS011;3540;53.242;10.408;2023-02-01T05:52:42;4.97;;;1.80;;
6999;SDS011;3540;53.242;10.408;2023-02-01T05:55:08;4.50;;;1.53;;
6999;SDS011;3540;53.242;10.408;2023-02-01T05:57:34;2.57;;;1.50;;
6999;SDS011;3540;53.242;10.408;2023-02-01T05:59:59;3.83;;;1.60;;
6999;SDS011;3540;53.242;10.408;2023-02-01T06:02:25;5.00;;;1.90;;
6999;SDS011;3540;53.242;10.408;2023-02-01T06:04:51;3.43;;;1.50;;
6999;SDS011;3540;53.242;10.408;2023-02-01T06:07:16;5.70;;;1.50;;
6999;SDS011;3540;53.242;10.408;2023-02-01T06:09:42;5.17;;;1.90;;
6999;SDS011;3540;53.242;10.408;2023-02-01T06:12:08;6.07;;;1.93;;
6999;SDS011;3540;53.242;10.408;2023-02-01T06:14:33;5.80;;;1.70;;
6999;SDS011;3540;53.242;10.408;2023-02-01T06:16:59;4.53;;;1.33;;
6999;SDS011;3540;53.242;10.408;2023-02-01T06:19:25;3.53;;;1.20;;
6999;SDS011;3540;53.242;10.408;2023-02-01T06:21:50;3.73;;;1.37;;
6999;SDS011;3540;53.242;10.408;2023-02-01T06:24:16;3.73;;;1.10;;
6999;SDS011;3540;53.242;10.408;2023-02-01T06:26:42;1.70;;;1.17;;
6999;SDS011;3540;53.242;10.408;2023-02-01T06:29:09;3.13;;;1.20;;
6999;SDS011;3540;53.242;10.408;2023-02-01T06:31:35;1.67;;;1.30;;
6999;SDS011;3540;53.242;10.408;2023-02-01T06:34:00;5.20;;;1.57;;
6999;SDS011;3540;53.242;10.408;2023-02-01T06:36:28;3.37;;;1.30;;
6999;SDS011;3540;53.242;10.408;2023-02-01T06:38:55;3.93;;;1.40;;
6999;SDS011;3540;53.242;10.408;2023-02-01T06:41:21;3.27;;;1.30;;
6999;SDS011;3540;53.242;10.408;2023-02-01T06:43:47;4.07;;;1.30;;
6999;SDS011;3540;53.242;10.408;2023-02-01T06:46:14;2.50;;;1.37;;
6999;SDS011;3540;53.242;10.408;2023-02-01T06:48:39;2.07;;;1.20;;
6999;SDS011;3540;53.242;10.408;2023-02-01T06:51:05;3.33;;;1.40;;
6999;SDS011;3540;53.242;10.408;2023-02-01T06:53:31;3.77;;;1.50;;
6999;SDS011;3540;53.242;10.408;2023-02-01T06:55:58;3.13;;;1.43;;
6999;SDS011;3540;53.242;10.408;2023-02-01T06:58:29;4.03;;;1.37;;
6999;SDS011;3540;53.242;10.408;2023-02-01T07:00:56;2.83;;;1.30;;
6999;SDS011;3540;53.242;10.408;2023-02-01T07:03:21;2.07;;;1.30;;
6999;SDS011;3540;53.242;10.408;2023-02-01T07:05:47;3.60;;;1.80;;
6999;SDS011;3540;53.242;10.408;2023-02-01T07:08:12;1.43;;;1.20;;
6999;SDS011;3540;53.242;10.408;2023-02-01T07:10:38;6.13;;;1.40;;
6999;SDS011;3540;53.242;10.408;2023-02-01T07:13:04;3.57;;;1.40;;
6999;SDS011;3540;53.242;10.408;2023-02-01T07:15:30;3.80;;;1.53;;
6999;SDS011;3540;53.242;10.408;2023-02-01T07:17:55;3.67;;;1.53;;
6999;SDS011;3540;53.242;10.408;2023-02-01T07:20:21;4.27;;;1.40;;
6999;SDS011;3540;53.242;10.408;2023-02-01T07:22:47;3.03;;;1.40;;
6999;SDS011;3540;53.242;10.408;2023-02-01T07:25:13;5.43;;;1.57;;
6999;SDS011;3540;53.242;10.408;2023-02-01T07:27:39;7.37;;;1.87;;
6999;SDS011;3540;53.242;10.408;2023-02-01T07:30:05;6.53;;;2.03;;
6999;SDS011;3540;53.242;10.408;2023-02-01T07:32:31;7.17;;;1.80;;
6999;SDS011;3540;53.242;10.408;2023-02-01T07:34:57;9.43;;;1.93;;
6999;SDS011;3540;53.242;10.408;2023-02-01T07:37:23;6.73;;;2.13;;
6999;SDS011;3540;53.242;10.408;2023-02-01T07:39:50;7.23;;;2.17;;
6999;SDS011;3540;53.242;10.408;2023-02-01T07:42:16;9.60;;;2.47;;
6999;SDS011;3540;53.242;10.408;2023-02-01T07:44:42;14.07;;;2.40;;
6999;SDS011;3540;53.242;10.408;2023-02-01T07:47:07;13.70;;;2.57;;
6999;SDS011;3540;53.242;10.408;2023-02-01T07:49:33;17.93;;;3.47;;
6999;SDS011;3540;53.242;10.408;2023-02-01T07:51:58;15.50;;;2.50;;
6999;SDS011;3540;53.242;10.408;2023-02-01T07:54:24;17.20;;;3.10;;
6999;SDS011;3540;53.242;10.408;2023-02-01T07:56:50;13.10;;;2.90;;
6999;SDS011;3540;53.242;10.408;2023-02-01T07:59:15;18.67;;;3.30;;
6999;SDS011;3540;53.242;10.408;2023-02-01T08:01:41;14.60;;;3.13;;
6999;SDS011;3540;53.242;10.408;2023-02-01T08:04:08;25.37;;;3.90;;
6999;SDS011;3540;53.242;10.408;2023-02-01T08:06:36;23.03;;;3.40;;
6999;SDS011;3540;53.242;10.408;2023-02-01T08:09:02;25.07;;;3.87;;
6999;SDS011;3540;53.242;10.408;2023-02-01T08:11:33;27.20;;;4.30;;
6999;SDS011;3540;53.242;10.408;2023-02-01T08:13:59;28.00;;;4.10;;
6999;SDS011;3540;53.242;10.408;2023-02-01T08:16:24;28.10;;;4.33;;
6999;SDS011;3540;53.242;10.408;2023-02-01T08:18:50;24.10;;;4.23;;
6999;SDS011;3540;53.242;10.408;2023-02-01T08:21:23;24.57;;;3.80;;
6999;SDS011;3540;53.242;10.408;2023-02-01T08:23:51;20.97;;;3.73;;
6999;SDS011;3540;53.242;10.408;2023-02-01T08:29:17;26.20;;;4.20;;
6999;SDS011;3540;53.242;10.408;2023-02-01T08:31:38;22.13;;;3.80;;
6999;SDS011;3540;53.242;10.408;2023-02-01T08:34:05;19.97;;;3.63;;
6999;SDS011;3540;53.242;10.408;2023-02-01T08:36:33;23.33;;;4.77;;
6999;SDS011;3540;53.242;10.408;2023-02-01T08:38:59;17.93;;;3.43;;
6999;SDS011;3540;53.242;10.408;2023-02-01T08:41:45;20.60;;;4.00;;
6999;SDS011;3540;53.242;10.408;2023-02-01T08:44:31;23.67;;;3.83;;
6999;SDS011;3540;53.242;10.408;2023-02-01T08:46:56;30.87;;;5.23;;
6999;SDS011;3540;53.242;10.408;2023-02-01T08:49:22;23.13;;;4.00;;
6999;SDS011;3540;53.242;10.408;2023-02-01T08:51:47;27.97;;;4.10;;
6999;SDS011;3540;53.242;10.408;2023-02-01T08:54:13;25.27;;;6.33;;
6999;SDS011;3540;53.242;10.408;2023-02-01T08:56:39;22.07;;;4.17;;
6999;SDS011;3540;53.242;10.408;2023-02-01T08:59:04;26.33;;;4.23;;
6999;SDS011;3540;53.242;10.408;2023-02-01T09:01:30;27.03;;;5.47;;
6999;SDS011;3540;53.242;10.408;2023-02-01T09:03:55;27.57;;;4.57;;
6999;SDS011;3540;53.242;10.408;2023-02-01T09:06:21;26.00;;;4.87;;
6999;SDS011;3540;53.242;10.408;2023-02-01T09:08:46;24.83;;;4.23;;
6999;SDS011;3540;53.242;10.408;2023-02-01T09:11:13;19.83;;;5.10;;
6999;SDS011;3540;53.242;10.408;2023-02-01T09:13:41;22.47;;;4.27;;
6999;SDS011;3540;53.242;10.408;2023-02-01T09:16:08;24.70;;;4.20;;
6999;SDS011;3540;53.242;10.408;2023-02-01T09:18:34;25.93;;;4.27;;
6999;SDS011;3540;53.242;10.408;2023-02-01T09:21:03;28.50;;;4.87;;
6999;SDS011;3540;53.242;10.408;2023-02-01T09:23:30;20.70;;;3.87;;
6999;SDS011;3540;53.242;10.408;2023-02-01T09:25:58;18.17;;;3.80;;
6999;SDS011;3540;53.242;10.408;2023-02-01T09:28:28;19.60;;;3.67;;
6999;SDS011;3540;53.242;10.408;2023-02-01T09:30:59;21.93;;;4.07;;
6999;SDS011;3540;53.242;10.408;2023-02-01T09:33:26;22.77;;;4.10;;
6999;SDS011;3540;53.242;10.408;2023-02-01T09:35:56;31.10;;;4.67;;
6999;SDS011;3540;53.242;10.408;2023-02-01T09:38:27;24.00;;;4.97;;
6999;SDS011;3540;53.242;10.408;2023-02-01T09:40:53;21.80;;;4.10;;
6999;SDS011;3540;53.242;10.408;2023-02-01T09:48:49;23.13;;;4.03;;
6999;SDS011;3540;53.242;10.408;2023-02-01T09:51:20;21.57;;;3.93;;
6999;SDS011;3540;53.242;10.408;2023-02-01T09:54:35;23.17;;;4.33;;
6999;SDS011;3540;53.242;10.408;2023-02-01T09:56:46;17.10;;;3.97;;
6999;SDS011;3540;53.242;10.408;2023-02-01T10:02:03;21.43;;;4.60;;
6999;SDS011;3540;53.242;10.408;2023-02-01T10:04:36;20.20;;;3.97;;
6999;SDS011;3540;53.242;10.408;2023-02-01T10:17:57;27.53;;;4.53;;
6999;SDS011;3540;53.242;10.408;2023-02-01T10:26:29;20.27;;;4.20;;
6999;SDS011;3540;53.242;10.408;2023-02-01T10:29:03;27.73;;;4.63;;
6999;SDS011;3540;53.242;10.408;2023-02-01T10:31:34;26.30;;;4.90;;
6999;SDS011;3540;53.242;10.408;2023-02-01T10:37:15;27.13;;;4.37;;
6999;SDS011;3540;53.242;10.408;2023-02-01T10:39:52;29.00;;;4.57;;
6999;SDS011;3540;53.242;10.408;2023-02-01T10:42:22;28.13;;;5.07;;
6999;SDS011;3540;53.242;10.408;2023-02-01T10:44:50;26.40;;;4.70;;
6999;SDS011;3540;53.242;10.408;2023-02-01T10:47:17;24.33;;;4.70;;
6999;SDS011;3540;53.242;10.408;2023-02-01T10:49:58;18.53;;;3.83;;
6999;SDS011;3540;53.242;10.408;2023-02-01T10:58:06;21.53;;;4.23;;
6999;SDS011;3540;53.242;10.408;2023-02-01T11:00:49;27.67;;;4.30;;
6999;SDS011;3540;53.242;10.408;2023-02-01T11:05:59;22.13;;;3.67;;
6999;SDS011;3540;53.242;10.408;2023-02-01T11:08:26;18.63;;;3.97;;
6999;SDS011;3540;53.242;10.408;2023-02-01T11:10:59;24.13;;;3.93;;
6999;SDS011;3540;53.242;10.408;2023-02-01T11:13:30;20.10;;;3.80;;
6999;SDS011;3540;53.242;10.408;2023-02-01T11:16:01;26.80;;;4.40;;
6999;SDS011;3540;53.242;10.408;2023-02-01T11:18:29;17.80;;;3.77;;
6999;SDS011;3540;53.242;10.408;2023-02-01T11:20:57;18.57;;;4.17;;
6999;SDS011;3540;53.242;10.408;2023-02-01T11:23:25;17.80;;;3.50;;
6999;SDS011;3540;53.242;10.408;2023-02-01T11:25:57;24.50;;;4.33;;
6999;SDS011;3540;53.242;10.408;2023-02-01T11:28:25;27.27;;;4.73;;
6999;SDS011;3540;53.242;10.408;2023-02-01T11:30:58;20.30;;;3.63;;
6999;SDS011;3540;53.242;10.408;2023-02-01T11:33:29;23.37;;;4.40;;
6999;SDS011;3540;53.242;10.408;2023-02-01T11:36:01;22.83;;;3.93;;
6999;SDS011;3540;53.242;10.408;2023-02-01T11:38:37;16.10;;;3.43;;
6999;SDS011;3540;53.242;10.408;2023-02-01T11:41:20;20.37;;;3.83;;
6999;SDS011;3540;53.242;10.408;2023-02-01T11:43:59;20.87;;;4.00;;
6999;SDS011;3540;53.242;10.408;2023-02-01T11:46:30;24.43;;;4.47;;
6999;SDS011;3540;53.242;10.408;2023-02-01T11:49:12;21.00;;;4.00;;
6999;SDS011;3540;53.242;10.408;2023-02-01T11:59:50;19.93;;;4.17;;
6999;SDS011;3540;53.242;10.408;2023-02-01T12:05:32;18.10;;;4.37;;
6999;SDS011;3540;53.242;10.408;2023-02-01T12:08:27;19.77;;;4.40;;
6999;SDS011;3540;53.242;10.408;2023-02-01T12:11:18;19.67;;;3.97;;
6999;SDS011;3540;53.242;10.408;2023-02-01T12:22:15;15.63;;;3.17;;
6999;SDS011;3540;53.242;10.408;2023-02-01T12:35:59;5.90;;;1.77;;
6999;SDS011;3540;53.242;10.408;2023-02-01T12:46:46;5.97;;;1.60;;
6999;SDS011;3540;53.242;10.408;2023-02-01T12:49:28;3.00;;;1.27;;
6999;SDS011;3540;53.242;10.408;2023-02-01T12:52:38;5.03;;;1.47;;
6999;SDS011;3540;53.242;10.408;2023-02-01T12:55:24;7.30;;;1.73;;
6999;SDS011;3540;53.242;10.408;2023-02-01T12:58:04;3.03;;;1.27;;
6999;SDS011;3540;53.242;10.408;2023-02-01T13:05:40;3.23;;;1.10;;
6999;SDS011;3540;53.242;10.408;2023-02-01T13:08:22;2.33;;;1.20;;
6999;SDS011;3540;53.242;10.408;2023-02-01T13:13:58;0.80;;;0.80;;
6999;SDS011;3540;53.242;10.408;2023-02-01T13:16:36;1.47;;;1.00;;
6999;SDS011;3540;53.242;10.408;2023-02-01T13:22:04;1.30;;;0.90;;
6999;SDS011;3540;53.242;10.408;2023-02-01T13:24:37;2.33;;;1.00;;
6999;SDS011;3540;53.242;10.408;2023-02-01T13:27:10;1.70;;;0.90;;
6999;SDS011;3540;53.242;10.408;2023-02-01T13:29:37;1.63;;;1.03;;
6999;SDS011;3540;53.242;10.408;2023-02-01T13:35:03;1.33;;;0.80;;
6999;SDS011;3540;53.242;10.408;2023-02-01T13:43:26;0.97;;;0.93;;
6999;SDS011;3540;53.242;10.408;2023-02-01T13:45:54;1.63;;;1.40;;
6999;SDS011;3540;53.242;10.408;2023-02-01T13:48:34;1.10;;;1.00;;
6999;SDS011;3540;53.242;10.408;2023-02-01T13:51:04;1.40;;;1.00;;
6999;SDS011;3540;53.242;10.408;2023-02-01T13:53:31;2.73;;;1.10;;
6999;SDS011;3540;53.242;10.408;2023-02-01T13:56:02;1.20;;;1.10;;
6999;SDS011;3540;53.242;10.408;2023-02-01T14:03:59;0.90;;;0.90;;
6999;SDS011;3540;53.242;10.408;2023-02-01T14:14:13;0.90;;;0.80;;
6999;SDS011;3540;53.242;10.408;2023-02-01T14:21:48;2.47;;;0.90;;
6999;SDS011;3540;53.242;10.408;2023-02-01T14:24:24;2.97;;;1.00;;
6999;SDS011;3540;53.242;10.408;2023-02-01T14:27:06;1.60;;;0.90;;
6999;SDS011;3540;53.242;10.408;2023-02-01T14:29:44;1.87;;;1.00;;
6999;SDS011;3540;53.242;10.408;2023-02-01T14:32:23;4.60;;;1.30;;
6999;SDS011;3540;53.242;10.408;2023-02-01T14:34:54;6.40;;;1.47;;
6999;SDS011;3540;53.242;10.408;2023-02-01T14:37:34;3.73;;;1.47;;
6999;SDS011;3540;53.242;10.408;2023-02-01T14:47:44;4.87;;;1.37;;
6999;SDS011;3540;53.242;10.408;2023-02-01T14:58:15;10.00;;;1.87;;
6999;SDS011;3540;53.242;10.408;2023-02-01T15:01:05;9.10;;;2.13;;
6999;SDS011;3540;53.242;10.408;2023-02-01T15:04:03;9.07;;;1.60;;
6999;SDS011;3540;53.242;10.408;2023-02-01T15:06:39;7.00;;;1.50;;
6999;SDS011;3540;53.242;10.408;2023-02-01T15:11:57;9.17;;;2.00;;
6999;SDS011;3540;53.242;10.408;2023-02-01T15:14:30;6.70;;;1.50;;
6999;SDS011;3540;53.242;10.408;2023-02-01T15:20:04;4.33;;;1.37;;
6999;SDS011;3540;53.242;10.408;2023-02-01T15:22:41;5.27;;;1.50;;
6999;SDS011;3540;53.242;10.408;2023-02-01T15:25:20;4.47;;;1.50;;
6999;SDS011;3540;53.242;10.408;2023-02-01T15:27:47;5.93;;;1.57;;
6999;SDS011;3540;53.242;10.408;2023-02-01T15:30:21;4.93;;;1.40;;
6999;SDS011;3540;53.242;10.408;2023-02-01T15:32:50;4.90;;;1.40;;
6999;SDS011;3540;53.242;10.408;2023-02-01T15:43:26;8.70;;;2.10;;
6999;SDS011;3540;53.242;10.408;2023-02-01T15:45:57;6.83;;;2.10;;
6999;SDS011;3540;53.242;10.408;2023-02-01T15:48:25;11.90;;;2.40;;
6999;SDS011;3540;53.242;10.408;2023-02-01T15:50:54;10.60;;;2.13;;
6999;SDS011;3540;53.242;10.408;2023-02-01T15:53:22;8.07;;;2.00;;
6999;SDS011;3540;53.242;10.408;2023-02-01T15:55:53;14.03;;;2.77;;
6999;SDS011;3540;53.242;10.408;2023-02-01T15:58:22;10.47;;;2.17;;
6999;SDS011;3540;53.242;10.408;2023-02-01T16:00:56;12.63;;;2.50;;
6999;SDS011;3540;53.242;10.408;2023-02-01T16:03:47;9.37;;;2.23;;
6999;SDS011;3540;53.242;10.408;2023-02-01T16:08:52;12.53;;;2.50;;
6999;SDS011;3540;53.242;10.408;2023-02-01T16:11:22;16.17;;;3.00;;
6999;SDS011;3540;53.242;10.408;2023-02-01T16:13:48;12.90;;;2.90;;
6999;SDS011;3540;53.242;10.408;2023-02-01T16:16:14;14.73;;;2.70;;
6999;SDS011;3540;53.242;10.408;2023-02-01T16:18:40;15.70;;;3.10;;
6999;SDS011;3540;53.242;10.408;2023-02-01T16:21:06;15.43;;;2.37;;
6999;SDS011;3540;53.242;10.408;2023-02-01T16:23:33;12.83;;;2.80;;
6999;SDS011;3540;53.242;10.408;2023-02-01T16:26:00;13.60;;;2.50;;
6999;SDS011;3540;53.242;10.408;2023-02-01T16:28:25;18.00;;;2.67;;
6999;SDS011;3540;53.242;10.408;2023-02-01T16:30:51;14.07;;;3.23;;
6999;SDS011;3540;53.242;10.408;2023-02-01T16:33:19;15.50;;;2.43;;
6999;SDS011;3540;53.242;10.408;2023-02-01T16:35:47;20.67;;;3.30;;
6999;SDS011;3540;53.242;10.408;2023-02-01T16:38:14;13.97;;;3.63;;
6999;SDS011;3540;53.242;10.408;2023-02-01T16:40:43;16.80;;;2.80;;
6999;SDS011;3540;53.242;10.408;2023-02-01T16:43:14;13.47;;;2.93;;
6999;SDS011;3540;53.242;10.408;2023-02-01T16:45:42;19.13;;;3.80;;
6999;SDS011;3540;53.242;10.408;2023-02-01T16:48:23;18.20;;;3.97;;
6999;SDS011;3540;53.242;10.408;2023-02-01T16:50:52;18.87;;;3.60;;
6999;SDS011;3540;53.242;10.408;2023-02-01T16:53:19;17.20;;;3.07;;
6999;SDS011;3540;53.242;10.408;2023-02-01T16:55:45;16.50;;;3.50;;
6999;SDS011;3540;53.242;10.408;2023-02-01T16:58:12;15.90;;;3.30;;
6999;SDS011;3540;53.242;10.408;2023-02-01T17:00:38;23.10;;;3.50;;
6999;SDS011;3540;53.242;10.408;2023-02-01T17:03:04;24.43;;;3.60;;
6999;SDS011;3540;53.242;10.408;2023-02-01T17:05:32;21.23;;;3.73;;
6999;SDS011;3540;53.242;10.408;2023-02-01T17:07:59;17.00;;;3.57;;
6999;SDS011;3540;53.242;10.408;2023-02-01T17:10:29;18.27;;;3.60;;
6999;SDS011;3540;53.242;10.408;2023-02-01T17:12:55;21.17;;;4.30;;
6999;SDS011;3540;53.242;10.408;2023-02-01T17:15:22;24.20;;;3.50;;
6999;SDS011;3540;53.242;10.408;2023-02-01T17:17:51;27.70;;;3.77;;
6999;SDS011;3540;53.242;10.408;2023-02-01T17:20:20;18.03;;;3.90;;
6999;SDS011;3540;53.242;10.408;2023-02-01T17:22:48;23.43;;;4.23;;
6999;SDS011;3540;53.242;10.408;2023-02-01T17:25:18;26.57;;;3.90;;
6999;SDS011;3540;53.242;10.408;2023-02-01T17:27:46;21.47;;;4.13;;
6999;SDS011;3540;53.242;10.408;2023-02-01T17:30:12;34.40;;;4.60;;
6999;SDS011;3540;53.242;10.408;2023-02-01T17:32:39;26.23;;;4.77;;
6999;SDS011;3540;53.242;10.408;2023-02-01T17:35:05;31.83;;;5.27;;
6999;SDS011;3540;53.242;10.408;2023-02-01T17:37:40;23.30;;;4.27;;
6999;SDS011;3540;53.242;10.408;2023-02-01T17:40:06;32.17;;;4.97;;
6999;SDS011;3540;53.242;10.408;2023-02-01T17:42:34;35.20;;;5.00;;
6999;SDS011;3540;53.242;10.408;2023-02-01T17:45:46;29.93;;;4.83;;
6999;SDS011;3540;53.242;10.408;2023-02-01T17:47:46;28.40;;;5.00;;
6999;SDS011;3540;53.242;10.408;2023-02-01T17:50:14;31.73;;;5.07;;
6999;SDS011;3540;53.242;10.408;2023-02-01T17:52:40;29.87;;;4.53;;
6999;SDS011;3540;53.242;10.408;2023-02-01T17:55:19;24.40;;;4.50;;
6999;SDS011;3540;53.242;10.408;2023-02-01T17:57:47;23.80;;;4.27;;
6999;SDS011;3540;53.242;10.408;2023-02-01T18:00:13;29.53;;;4.50;;
6999;SDS011;3540;53.242;10.408;2023-02-01T18:02:41;19.87;;;3.40;;